Airfield :
LOGIN :

Register | Disclaimer

   EN    FR    IT 

 










Legend :    VFR   Marginal VFR   IFR   Intensive IFR   Very Intensive IFR
Visi :
Ceiling :
>= 8 km
>= 3000ft
5 to 8 km
1000 to 3000 ft
1500m to 5 km
500 to 1000 ft
800 to 1500m
200 to 500 ft
< 800m
< 200 ft
Symbols :   Thunderstorms  Fog  Heavy snow  Heavy precipitations  Wind > 20 kt
SIGMETs :     Misc.  Thunderstorms  Icing  Turbulence  Mountain Waves  Volcanic Ashes






- Airport Elevation : 179 ft


LIPI - Rivolto AFB Udine

CURRENT METAR :
  • 131355Z 31007KT 4000 -RA SCT018 BKN020 08/06 Q0997 RMK OVC VIS MIN 3000NE WIND THR06 35011KT WIND THR24 34009KT YLO

EXPIRED METARs :
  • 131320Z 32010KT 5000 -RA BR SCT020 BKN025 09/06 Q0996 RMK OVC VIS MIN 5000 WIND THR06 35011KT WIND THR24 035009KT WHT
  • 131255Z 34008KT 9999 -RA SCT024 SCT028 10/06 Q0996 RMK OVC VIS MIN 9999 WIND THR06 01008KT WIND THR24 02007KT BLU

TAF TAF LIPI
Valid from the 13 at 15:00 until the 14 at 00:00 UTC


131400Z 1315/1324 35010KT 9999 SCT030 BKN050
TEMPO 1315/1320 5000 RA BR



MET'MAP, your aeronautical weather chart ! - Copyright ORBIFLY December 2007 - Disclaimer

ORBIFLY MET'MAP TEAM :

Programming & Development : Alexandra Zaïnal
Concept & Development : Baudouin d'Aumeries
Co-Development & Prog : Marc-Olivier Méhu
Technical & hardware support : Manuel Goepfert

Contact : metmap@orbifly.com




SOURCES & CREDITS :

   NOAA